CSN388 EINN-WMKK
Flight info
| Callsign | CSN388 |
|---|---|
| Flight time | N/A |
| Altitude | 41000 |
| Route | ABAGU3B ABAGU DCT BEPAN DCT LANON DCT FITBO DCT ADMIS DCT MOMIC DCT WOODY DCT SORAT/N0490F350 DCT BIGSU DCT TIKNI DCT GORKO DCT TIPAM DCT MIKOV DCT NORAH DCT ENIMA DCT DINRO N743 UDROS UM859 KARDE UN644 ROLIN N644 ODILI/N0497F370 N644 LAGAS M747 SUBUT T923 ERLEV M11 RODAR A909 LEMOD N644 DI M875 IGONA/N0497F390 M875 KAKID M770 OBMOG L515 PUT B579 VPL Y503 RINBA Y507 KAKAK KAKAK1G |
| Aircraft | A388/J-SADE2E3FGHIJ3J4J5M1RWXY/LB1D1 |
Departure
| Time | 2026-05-06 22:42 |
|---|---|
| Airport | Shannon Airport (EINN) |
Arrival
| Time | N/A |
|---|---|
| Airport | Kuala Lumpur International Airport (WMKK) |
| Time | Latitude | Longitude | Altitude | Speed | Heading |
|---|---|---|---|---|---|
| 2026-05-06 21:54 | 52.69401 | -8.92281 | 27 ft | 0 kts | 183° |
| 2026-05-06 22:33 | 52.69405 | -8.92282 | 27 ft | 1 kts | 179° |
| 2026-05-06 22:34 | 52.69416 | -8.92287 | 26 ft | 4 kts | 158° |
| 2026-05-06 22:34 | 52.69439 | -8.92330 | 25 ft | 5 kts | 120° |
| 2026-05-06 22:34 | 52.69443 | -8.92353 | 25 ft | 0 kts | 107° |
| 2026-05-06 22:35 | 52.69443 | -8.92352 | 25 ft | 1 kts | 106° |
| 2026-05-06 22:35 | 52.69445 | -8.92297 | 25 ft | 8 kts | 77° |
| 2026-05-06 22:35 | 52.69456 | -8.92243 | 27 ft | 0 kts | 63° |
| 2026-05-06 22:36 | 52.69468 | -8.92160 | 30 ft | 11 kts | 90° |
| 2026-05-06 22:36 | 52.69462 | -8.92064 | 27 ft | 13 kts | 99° |
| 2026-05-06 22:36 | 52.69441 | -8.91905 | 27 ft | 15 kts | 107° |
| 2026-05-06 22:37 | 52.69376 | -8.91774 | 29 ft | 16 kts | 152° |
| 2026-05-06 22:37 | 52.69289 | -8.91667 | 28 ft | 16 kts | 129° |
| 2026-05-06 22:37 | 52.69283 | -8.91654 | 30 ft | 0 kts | 129° |
| 2026-05-06 22:37 | 52.69262 | -8.91604 | 27 ft | 18 kts | 109° |
| 2026-05-06 22:38 | 52.69301 | -8.91511 | 28 ft | 21 kts | 25° |
| 2026-05-06 22:38 | 52.69473 | -8.91411 | 25 ft | 27 kts | 18° |
| 2026-05-06 22:38 | 52.69650 | -8.91312 | 25 ft | 27 kts | 19° |
| 2026-05-06 22:38 | 52.69825 | -8.91215 | 23 ft | 26 kts | 19° |
| 2026-05-06 22:39 | 52.69992 | -8.91121 | 18 ft | 26 kts | 19° |
| 2026-05-06 22:39 | 52.70162 | -8.91027 | 16 ft | 26 kts | 18° |
| 2026-05-06 22:39 | 52.70327 | -8.90937 | 15 ft | 25 kts | 18° |
| 2026-05-06 22:39 | 52.70492 | -8.90848 | 13 ft | 25 kts | 18° |
| 2026-05-06 22:40 | 52.70657 | -8.90755 | 12 ft | 25 kts | 19° |
| 2026-05-06 22:40 | 52.70817 | -8.90672 | 11 ft | 24 kts | 7° |
| 2026-05-06 22:40 | 52.70947 | -8.90770 | 10 ft | 17 kts | 301° |
| 2026-05-06 22:40 | 52.70933 | -8.90914 | 10 ft | 12 kts | 235° |
| 2026-05-06 22:41 | 52.70782 | -8.91239 | 12 ft | 71 kts | 232° |
| 2026-05-06 22:41 | 52.70342 | -8.92172 | 24 ft | 131 kts | 232° |
| 2026-05-06 22:41 | 52.69698 | -8.93532 | 33 ft | 167 kts | 232° |
| 2026-05-06 22:42 | 52.69017 | -8.95067 | 405 ft | 173 kts | 237° |
| 2026-05-06 22:42 | 52.68346 | -8.96728 | 1068 ft | 177 kts | 232° |
| 2026-05-06 22:42 | 52.67398 | -8.98034 | 1587 ft | 191 kts | 204° |
| 2026-05-06 22:42 | 52.66066 | -8.98489 | 2060 ft | 209 kts | 181° |
| 2026-05-06 22:43 | 52.64595 | -8.97948 | 2534 ft | 225 kts | 155° |
| 2026-05-06 22:43 | 52.63247 | -8.96696 | 3449 ft | 222 kts | 148° |
| 2026-05-06 22:43 | 52.61937 | -8.95384 | 4260 ft | 222 kts | 150° |
| 2026-05-06 22:43 | 52.60610 | -8.94128 | 4773 ft | 227 kts | 146° |
| 2026-05-06 22:44 | 52.59512 | -8.92276 | 5015 ft | 232 kts | 120° |
| 2026-05-06 22:44 | 52.59082 | -8.89760 | 5012 ft | 234 kts | 95° |
| 2026-05-06 22:44 | 52.58976 | -8.87101 | 5065 ft | 246 kts | 96° |
| 2026-05-06 22:44 | 52.58812 | -8.84232 | 5295 ft | 264 kts | 97° |
| 2026-05-06 22:45 | 52.58611 | -8.81154 | 5857 ft | 269 kts | 98° |
| 2026-05-06 22:45 | 52.58408 | -8.78144 | 6176 ft | 284 kts | 98° |
| 2026-05-06 22:45 | 52.58183 | -8.74842 | 6370 ft | 302 kts | 98° |
| 2026-05-06 22:45 | 52.57950 | -8.71385 | 6530 ft | 318 kts | 98° |
| 2026-05-06 22:46 | 52.57703 | -8.67713 | 6686 ft | 333 kts | 98° |
| 2026-05-06 22:46 | 52.57445 | -8.63871 | 6844 ft | 349 kts | 98° |
| 2026-05-06 22:46 | 52.57174 | -8.59852 | 7063 ft | 361 kts | 98° |
| 2026-05-06 22:46 | 52.56897 | -8.55754 | 7536 ft | 366 kts | 97° |
| 2026-05-06 22:47 | 52.56616 | -8.51618 | 8052 ft | 369 kts | 97° |
| 2026-05-06 22:47 | 52.56333 | -8.47477 | 8631 ft | 371 kts | 98° |
| 2026-05-06 22:47 | 52.56043 | -8.43283 | 9125 ft | 375 kts | 97° |
| 2026-05-06 22:47 | 52.55748 | -8.39022 | 9664 ft | 379 kts | 97° |
| 2026-05-06 22:48 | 52.55448 | -8.34735 | 10166 ft | 382 kts | 97° |
| 2026-05-06 22:48 | 52.55144 | -8.30383 | 10680 ft | 383 kts | 97° |
| 2026-05-06 22:48 | 52.54833 | -8.25980 | 11309 ft | 382 kts | 97° |
| 2026-05-06 22:48 | 52.54541 | -8.21844 | 11921 ft | 381 kts | 97° |
| 2026-05-06 22:49 | 52.54236 | -8.17561 | 12561 ft | 379 kts | 97° |
| 2026-05-06 22:49 | 52.53929 | -8.13274 | 13218 ft | 377 kts | 97° |
| 2026-05-06 22:49 | 52.53624 | -8.09042 | 13861 ft | 376 kts | 97° |
| 2026-05-06 22:49 | 52.53314 | -8.04758 | 14046 ft | 386 kts | 97° |
| 2026-05-06 22:50 | 52.52989 | -8.00308 | 14173 ft | 398 kts | 97° |
| 2026-05-06 22:50 | 52.52665 | -7.95880 | 14283 ft | 408 kts | 97° |
| 2026-05-06 22:50 | 52.52331 | -7.91334 | 14583 ft | 413 kts | 97° |
| 2026-05-06 22:50 | 52.51990 | -7.86719 | 14966 ft | 415 kts | 97° |
| 2026-05-06 22:51 | 52.51641 | -7.82010 | 15351 ft | 417 kts | 97° |
| 2026-05-06 22:51 | 52.51287 | -7.77273 | 15711 ft | 420 kts | 97° |
| 2026-05-06 22:51 | 52.50934 | -7.72573 | 16107 ft | 421 kts | 97° |
| 2026-05-06 22:51 | 52.50577 | -7.67848 | 16456 ft | 423 kts | 97° |
| 2026-05-06 22:52 | 52.50357 | -7.63097 | 16785 ft | 426 kts | 90° |
| 2026-05-06 22:52 | 52.50461 | -7.58211 | 17136 ft | 428 kts | 88° |
| 2026-05-06 22:52 | 52.50583 | -7.53334 | 17474 ft | 431 kts | 88° |
| 2026-05-06 22:52 | 52.50694 | -7.48450 | 17814 ft | 433 kts | 88° |
| 2026-05-06 22:53 | 52.50799 | -7.43593 | 18134 ft | 435 kts | 88° |
| 2026-05-06 22:53 | 52.50901 | -7.38668 | 18440 ft | 437 kts | 88° |
| 2026-05-06 22:53 | 52.51001 | -7.33757 | 18760 ft | 438 kts | 88° |
| 2026-05-06 22:53 | 52.51100 | -7.28776 | 19073 ft | 440 kts | 88° |
| 2026-05-06 22:54 | 52.51196 | -7.23839 | 19370 ft | 441 kts | 88° |
| 2026-05-06 22:54 | 52.51292 | -7.18830 | 19675 ft | 442 kts | 88° |
| 2026-05-06 22:54 | 52.51386 | -7.13775 | 19983 ft | 444 kts | 88° |
| 2026-05-06 22:54 | 52.51477 | -7.08763 | 20286 ft | 445 kts | 88° |
| 2026-05-06 22:55 | 52.51568 | -7.03679 | 20586 ft | 447 kts | 88° |
| 2026-05-06 22:55 | 52.51656 | -6.98619 | 20894 ft | 448 kts | 88° |
| 2026-05-06 22:55 | 52.51742 | -6.93566 | 21191 ft | 450 kts | 88° |
| 2026-05-06 22:55 | 52.51826 | -6.88498 | 21499 ft | 451 kts | 88° |
| 2026-05-06 22:56 | 52.51908 | -6.83403 | 21795 ft | 453 kts | 88° |
| 2026-05-06 22:56 | 52.51988 | -6.78261 | 22149 ft | 454 kts | 88° |
| 2026-05-06 22:56 | 52.52066 | -6.73138 | 22425 ft | 457 kts | 88° |
| 2026-05-06 22:56 | 52.52143 | -6.67927 | 22783 ft | 458 kts | 88° |
| 2026-05-06 22:57 | 52.52218 | -6.62690 | 23117 ft | 460 kts | 88° |
| 2026-05-06 22:57 | 52.52291 | -6.57447 | 23468 ft | 462 kts | 88° |
| 2026-05-06 22:57 | 52.52362 | -6.52245 | 23798 ft | 463 kts | 88° |
| 2026-05-06 22:57 | 52.52430 | -6.46997 | 24081 ft | 466 kts | 88° |
| 2026-05-06 22:58 | 52.52497 | -6.41725 | 24384 ft | 467 kts | 88° |
| 2026-05-06 22:58 | 52.52560 | -6.36543 | 24725 ft | 469 kts | 88° |
| 2026-05-06 22:58 | 52.52623 | -6.31175 | 25067 ft | 470 kts | 88° |
| 2026-05-06 22:58 | 52.52641 | -6.25800 | 25411 ft | 473 kts | 91° |
| 2026-05-06 22:59 | 52.52416 | -6.20490 | 25746 ft | 475 kts | 94° |
| 2026-05-06 22:59 | 52.52172 | -6.15108 | 26118 ft | 477 kts | 93° |
| 2026-05-06 22:59 | 52.51940 | -6.09679 | 26490 ft | 479 kts | 93° |
| 2026-05-06 22:59 | 52.51705 | -6.04209 | 26870 ft | 481 kts | 93° |
| 2026-05-06 23:00 | 52.51469 | -5.98822 | 27249 ft | 482 kts | 93° |
| 2026-05-06 23:00 | 52.51225 | -5.93344 | 27596 ft | 485 kts | 93° |
| 2026-05-06 23:00 | 52.50973 | -5.87804 | 27961 ft | 488 kts | 93° |
| 2026-05-06 23:00 | 52.50719 | -5.82262 | 28333 ft | 490 kts | 93° |
| 2026-05-06 23:01 | 52.50460 | -5.76689 | 28695 ft | 492 kts | 93° |
| 2026-05-06 23:01 | 52.50198 | -5.71114 | 29037 ft | 494 kts | 93° |
| 2026-05-06 23:01 | 52.49931 | -5.65488 | 29389 ft | 496 kts | 93° |
| 2026-05-06 23:01 | 52.49663 | -5.59908 | 29725 ft | 498 kts | 93° |
| 2026-05-06 23:02 | 52.49388 | -5.54218 | 30078 ft | 501 kts | 93° |
| 2026-05-06 23:02 | 52.49109 | -5.48518 | 30411 ft | 502 kts | 93° |
| 2026-05-06 23:02 | 52.48829 | -5.42835 | 30745 ft | 503 kts | 93° |
| 2026-05-06 23:02 | 52.48545 | -5.37156 | 31071 ft | 504 kts | 93° |
| 2026-05-06 23:03 | 52.48256 | -5.31414 | 31404 ft | 505 kts | 93° |
| 2026-05-06 23:03 | 52.47967 | -5.25718 | 31722 ft | 507 kts | 93° |
| 2026-05-06 23:03 | 52.47671 | -5.19953 | 32095 ft | 507 kts | 92° |
| 2026-05-06 23:03 | 52.47372 | -5.14192 | 32594 ft | 504 kts | 92° |
| 2026-05-06 23:04 | 52.47076 | -5.08557 | 33120 ft | 501 kts | 92° |
| 2026-05-06 23:04 | 52.46781 | -5.02978 | 33837 ft | 490 kts | 92° |
| 2026-05-06 23:04 | 52.46488 | -4.97537 | 34813 ft | 469 kts | 92° |
| 2026-05-06 23:04 | 52.46204 | -4.92269 | 35483 ft | 462 kts | 93° |
| 2026-05-06 23:05 | 52.45921 | -4.87020 | 35643 ft | 465 kts | 93° |
| 2026-05-06 23:05 | 52.45636 | -4.81750 | 35807 ft | 467 kts | 93° |
| 2026-05-06 23:05 | 52.45347 | -4.76477 | 35968 ft | 470 kts | 93° |
| 2026-05-06 23:05 | 52.45050 | -4.71131 | 36120 ft | 472 kts | 93° |
| 2026-05-06 23:06 | 52.44756 | -4.65876 | 36286 ft | 474 kts | 93° |
| 2026-05-06 23:06 | 52.44457 | -4.60578 | 36449 ft | 477 kts | 94° |
| 2026-05-06 23:06 | 52.44148 | -4.55145 | 36604 ft | 479 kts | 94° |
| 2026-05-06 23:06 | 52.43840 | -4.49769 | 36758 ft | 481 kts | 94° |
| 2026-05-06 23:07 | 52.43527 | -4.44348 | 36930 ft | 483 kts | 94° |
| 2026-05-06 23:07 | 52.43205 | -4.38843 | 37067 ft | 486 kts | 95° |
| 2026-05-06 23:07 | 52.42723 | -4.33358 | 37213 ft | 489 kts | 98° |
| 2026-05-06 23:07 | 52.42154 | -4.27866 | 37369 ft | 491 kts | 98° |
| 2026-05-06 23:08 | 52.41613 | -4.22417 | 37518 ft | 494 kts | 98° |
| 2026-05-06 23:08 | 52.41065 | -4.16865 | 37677 ft | 496 kts | 98° |
| 2026-05-06 23:08 | 52.40507 | -4.11272 | 37828 ft | 498 kts | 98° |
| 2026-05-06 23:08 | 52.39946 | -4.05706 | 37978 ft | 500 kts | 98° |
| 2026-05-06 23:09 | 52.39372 | -4.00063 | 38126 ft | 503 kts | 98° |
| 2026-05-06 23:09 | 52.38793 | -3.94407 | 38291 ft | 505 kts | 98° |
| 2026-05-06 23:09 | 52.38211 | -3.88748 | 38416 ft | 508 kts | 99° |
| 2026-05-06 23:09 | 52.37625 | -3.83090 | 38584 ft | 510 kts | 99° |
| 2026-05-06 23:10 | 52.37037 | -3.77435 | 38719 ft | 512 kts | 99° |
| 2026-05-06 23:10 | 52.36429 | -3.71618 | 38867 ft | 513 kts | 99° |
| 2026-05-06 23:10 | 52.35839 | -3.65996 | 39003 ft | 514 kts | 99° |
| 2026-05-06 23:10 | 52.35232 | -3.60244 | 39137 ft | 516 kts | 99° |
| 2026-05-06 23:11 | 52.34619 | -3.54456 | 39287 ft | 517 kts | 99° |
| 2026-05-06 23:11 | 52.34003 | -3.48684 | 39667 ft | 512 kts | 99° |
| 2026-05-06 23:11 | 52.33398 | -3.43028 | 39800 ft | 514 kts | 99° |
| 2026-05-06 23:12 | 52.32166 | -3.31597 | 40001 ft | 517 kts | 99° |
| 2026-05-06 23:12 | 52.31536 | -3.25796 | 40148 ft | 518 kts | 99° |
| 2026-05-06 23:12 | 52.30905 | -3.20013 | 40260 ft | 520 kts | 99° |
| 2026-05-06 23:13 | 52.29649 | -3.08578 | 40319 ft | 524 kts | 100° |
| 2026-05-06 23:13 | 52.29007 | -3.02785 | 40141 ft | 518 kts | 100° |
| 2026-05-06 23:13 | 52.28384 | -2.97180 | 39758 ft | 514 kts | 100° |
| 2026-05-06 23:13 | 52.27751 | -2.91508 | 39341 ft | 510 kts | 100° |
| 2026-05-06 23:14 | 52.27121 | -2.85900 | 38949 ft | 506 kts | 100° |
| 2026-05-06 23:14 | 52.26494 | -2.80340 | 38522 ft | 501 kts | 100° |
| 2026-05-06 23:14 | 52.25865 | -2.74783 | 38119 ft | 495 kts | 100° |
| 2026-05-06 23:14 | 52.25242 | -2.69306 | 37715 ft | 490 kts | 100° |
| 2026-05-06 23:15 | 52.24630 | -2.63946 | 37288 ft | 485 kts | 99° |
| 2026-05-06 23:15 | 52.24016 | -2.58593 | 36897 ft | 480 kts | 99° |
| 2026-05-06 23:15 | 52.23417 | -2.53396 | 36528 ft | 475 kts | 99° |
| 2026-05-06 23:15 | 52.22827 | -2.48288 | 36163 ft | 470 kts | 99° |
| 2026-05-06 23:16 | 52.22222 | -2.43067 | 35742 ft | 467 kts | 99° |
| 2026-05-06 23:16 | 52.21628 | -2.37871 | 35258 ft | 465 kts | 98° |
| 2026-05-06 23:16 | 52.21191 | -2.32680 | 34644 ft | 466 kts | 95° |
| 2026-05-06 23:16 | 52.20837 | -2.27473 | 34018 ft | 467 kts | 95° |
| 2026-05-06 23:17 | 52.20482 | -2.22186 | 33318 ft | 468 kts | 95° |
| 2026-05-06 23:17 | 52.20110 | -2.16941 | 33067 ft | 461 kts | 95° |
| 2026-05-06 23:17 | 52.19725 | -2.11754 | 33060 ft | 463 kts | 95° |
| 2026-05-06 23:18 | 52.18914 | -2.01215 | 33059 ft | 479 kts | 96° |
| 2026-05-06 23:18 | 52.18064 | -1.90403 | 33063 ft | 495 kts | 96° |
| 2026-05-06 23:19 | 52.17180 | -1.79332 | 33055 ft | 498 kts | 96° |
| 2026-05-06 23:19 | 52.16288 | -1.68278 | 33049 ft | 498 kts | 96° |
| 2026-05-06 23:20 | 52.15378 | -1.57135 | 33047 ft | 498 kts | 96° |
| 2026-05-06 23:20 | 52.14460 | -1.46017 | 33053 ft | 499 kts | 96° |
| 2026-05-06 23:21 | 52.13529 | -1.34869 | 33046 ft | 501 kts | 97° |
| 2026-05-06 23:21 | 52.12756 | -1.25714 | 33049 ft | 501 kts | 97° |
| 2026-05-06 23:22 | 52.11811 | -1.14650 | 33053 ft | 501 kts | 97° |
| 2026-05-06 23:22 | 52.10692 | -1.01697 | 33054 ft | 501 kts | 97° |
| 2026-05-06 23:23 | 52.09874 | -0.92326 | 33056 ft | 504 kts | 97° |
| 2026-05-06 23:23 | 52.08908 | -0.81383 | 33056 ft | 504 kts | 97° |
| 2026-05-06 23:24 | 52.07907 | -0.70171 | 33056 ft | 504 kts | 97° |
| 2026-05-06 23:24 | 52.06912 | -0.59140 | 33056 ft | 504 kts | 97° |
| 2026-05-06 23:25 | 52.05898 | -0.48022 | 33052 ft | 504 kts | 97° |
| 2026-05-06 23:25 | 52.04867 | -0.36846 | 33053 ft | 504 kts | 98° |
| 2026-05-06 23:26 | 52.03828 | -0.25680 | 33052 ft | 507 kts | 98° |
| 2026-05-06 23:26 | 52.02760 | -0.14342 | 33048 ft | 507 kts | 98° |
| 2026-05-06 23:27 | 52.01687 | -0.03071 | 33047 ft | 507 kts | 98° |
| 2026-05-06 23:27 | 52.00620 | 0.08029 | 33050 ft | 510 kts | 99° |
| 2026-05-06 23:28 | 51.99467 | 0.19350 | 33047 ft | 510 kts | 102° |
| 2026-05-06 23:28 | 51.97987 | 0.30563 | 33046 ft | 510 kts | 102° |
| 2026-05-06 23:29 | 51.96547 | 0.41820 | 33044 ft | 509 kts | 102° |
| 2026-05-06 23:29 | 51.95091 | 0.53003 | 33046 ft | 513 kts | 102° |
| 2026-05-06 23:30 | 51.93608 | 0.64230 | 33035 ft | 512 kts | 102° |
| 2026-05-06 23:30 | 51.92111 | 0.75473 | 33032 ft | 512 kts | 102° |
| 2026-05-06 23:31 | 51.90611 | 0.86650 | 33031 ft | 512 kts | 102° |
| 2026-05-06 23:31 | 51.89102 | 0.97810 | 33024 ft | 512 kts | 103° |
| 2026-05-06 23:32 | 51.87570 | 1.09056 | 33023 ft | 514 kts | 103° |
| 2026-05-06 23:32 | 51.86034 | 1.20245 | 33026 ft | 514 kts | 103° |
| 2026-05-06 23:33 | 51.84492 | 1.31392 | 33027 ft | 514 kts | 103° |
| 2026-05-06 23:33 | 51.82944 | 1.42501 | 33026 ft | 514 kts | 103° |
| 2026-05-06 23:34 | 51.81394 | 1.53544 | 33026 ft | 514 kts | 103° |
| 2026-05-06 23:34 | 51.79852 | 1.64439 | 33027 ft | 513 kts | 103° |
| 2026-05-06 23:35 | 51.78270 | 1.75546 | 33027 ft | 512 kts | 103° |
| 2026-05-06 23:35 | 51.76669 | 1.86701 | 33028 ft | 512 kts | 103° |
| 2026-05-06 23:36 | 51.75056 | 1.97861 | 33025 ft | 512 kts | 103° |
| 2026-05-06 23:36 | 51.73435 | 2.08992 | 33025 ft | 512 kts | 104° |
| 2026-05-06 23:37 | 51.71812 | 2.20055 | 33018 ft | 512 kts | 104° |
| 2026-05-06 23:37 | 51.70165 | 2.31211 | 33019 ft | 512 kts | 104° |
| 2026-05-06 23:38 | 51.68522 | 2.42255 | 33013 ft | 512 kts | 104° |
| 2026-05-06 23:38 | 51.66873 | 2.53355 | 33012 ft | 511 kts | 103° |
| 2026-05-06 23:39 | 51.65363 | 2.64520 | 33010 ft | 511 kts | 102° |
| 2026-05-06 23:39 | 51.63863 | 2.75691 | 33007 ft | 512 kts | 103° |
| 2026-05-06 23:40 | 51.62340 | 2.86792 | 33012 ft | 510 kts | 103° |
| 2026-05-06 23:40 | 51.60806 | 2.97851 | 33006 ft | 510 kts | 103° |
| 2026-05-06 23:41 | 51.59255 | 3.08940 | 32998 ft | 510 kts | 103° |
| 2026-05-06 23:41 | 51.57703 | 3.19960 | 32995 ft | 513 kts | 103° |
| 2026-05-06 23:42 | 51.56132 | 3.31036 | 32992 ft | 510 kts | 103° |
| 2026-05-06 23:42 | 51.54574 | 3.41933 | 32991 ft | 508 kts | 103° |
| 2026-05-06 23:43 | 51.53010 | 3.52806 | 32990 ft | 507 kts | 103° |
| 2026-05-06 23:43 | 51.51438 | 3.63647 | 32985 ft | 506 kts | 103° |
| 2026-05-06 23:44 | 51.49838 | 3.74607 | 32987 ft | 505 kts | 103° |
| 2026-05-06 23:44 | 51.48236 | 3.85509 | 32977 ft | 505 kts | 103° |
| 2026-05-06 23:45 | 51.46635 | 3.96323 | 32972 ft | 505 kts | 103° |
| 2026-05-06 23:45 | 51.45001 | 4.07290 | 32967 ft | 505 kts | 103° |
| 2026-05-06 23:46 | 51.43372 | 4.18140 | 32968 ft | 505 kts | 103° |
| 2026-05-06 23:46 | 51.41740 | 4.28939 | 32966 ft | 505 kts | 103° |
| 2026-05-06 23:47 | 51.40086 | 4.39841 | 32965 ft | 505 kts | 103° |
| 2026-05-06 23:47 | 51.38453 | 4.50783 | 32963 ft | 505 kts | 103° |
| 2026-05-06 23:48 | 51.36841 | 4.61549 | 32965 ft | 505 kts | 103° |
| 2026-05-06 23:48 | 51.35208 | 4.72352 | 32968 ft | 505 kts | 103° |
| 2026-05-06 23:49 | 51.33558 | 4.83177 | 32967 ft | 503 kts | 103° |
| 2026-05-06 23:49 | 51.31900 | 4.93986 | 32971 ft | 503 kts | 103° |
| 2026-05-06 23:50 | 51.30229 | 5.04811 | 32969 ft | 503 kts | 104° |
| 2026-05-06 23:50 | 51.27711 | 5.20976 | 32969 ft | 503 kts | 104° |
| 2026-05-06 23:51 | 51.26027 | 5.31705 | 32968 ft | 503 kts | 104° |
| 2026-05-06 23:51 | 51.24346 | 5.42344 | 32972 ft | 503 kts | 104° |
| 2026-05-06 23:52 | 51.22629 | 5.53137 | 32965 ft | 503 kts | 104° |
| 2026-05-06 23:52 | 51.20893 | 5.63893 | 32970 ft | 503 kts | 105° |
| 2026-05-06 23:53 | 51.19028 | 5.74621 | 32962 ft | 503 kts | 105° |
| 2026-05-06 23:53 | 51.17152 | 5.85361 | 32969 ft | 503 kts | 105° |
| 2026-05-06 23:54 | 51.15302 | 5.95968 | 32961 ft | 503 kts | 105° |
| 2026-05-06 23:54 | 51.13419 | 6.06704 | 32966 ft | 503 kts | 105° |
| 2026-05-06 23:55 | 51.11532 | 6.17403 | 32963 ft | 503 kts | 106° |
| 2026-05-06 23:55 | 51.09637 | 6.28081 | 32960 ft | 503 kts | 106° |
| 2026-05-06 23:56 | 51.07734 | 6.38735 | 32966 ft | 503 kts | 106° |